SALMON FALLS @ MILTON: From 09/04/2018 16:00 to 09/19/2018 04:00

Date STAGE [FT] FLOW [CFS] LAKE ELEVATION [FT] PRECIPITATION INCREMENT [IN] AIR TEMPERATURE [DEGF]
09/18/2018 22:00 3.40 -- 413.62 0.00 68.5
09/18/2018 21:00 3.41 193.4 413.61 0.00 69.5
09/18/2018 20:00 3.41 193.4 413.64 0.00 71.2
09/18/2018 19:00 3.41 193.4 413.64 0.00 74.0
09/18/2018 18:00 3.41 193.4 413.63 0.00 74.3
09/18/2018 17:00 3.42 196.9 413.65 0.00 76.5
09/18/2018 16:00 3.42 196.9 413.67 0.00 75.5
09/18/2018 15:00 3.43 200.3 413.67 0.00 73.2
09/18/2018 14:00 3.43 200.3 413.67 0.00 71.6
09/18/2018 13:00 3.43 200.3 413.70 0.02 69.1
09/18/2018 12:00 3.40 190.0 413.70 0.04 67.6
09/18/2018 11:00 3.05 95.0 413.69 0.09 67.5
09/18/2018 10:00 3.04 92.9 413.70 0.15 67.1
09/18/2018 09:00 3.04 92.9 413.67 0.09 67.6
09/18/2018 08:00 3.03 90.9 413.68 0.03 68.3
09/18/2018 07:00 3.03 90.9 413.67 0.01 68.0
09/18/2018 06:00 3.03 90.9 413.67 0.02 68.3
09/18/2018 05:00 3.04 92.9 413.68 0.03 67.7
09/18/2018 04:00 3.03 90.9 413.67 0.00 67.8
09/18/2018 03:00 3.04 92.9 413.68 0.00 68.8
09/18/2018 02:00 3.03 90.9 413.67 0.00 68.5
09/18/2018 01:00 3.04 92.9 413.68 0.00 67.7
09/18/2018 00:00 3.04 92.9 413.68 0.00 67.2
09/17/2018 23:00 3.04 92.9 413.69 0.00 67.3
09/17/2018 22:00 3.04 92.9 413.70 0.00 68.7
09/17/2018 21:00 3.05 95.0 413.68 0.00 69.0
09/17/2018 20:00 3.05 95.0 413.71 0.00 71.6
09/17/2018 19:00 3.05 95.0 413.71 0.00 74.3
09/17/2018 18:00 3.05 95.0 413.69 0.00 77.8
09/17/2018 17:00 3.05 95.0 413.69 0.00 79.1
09/17/2018 16:00 3.05 95.0 413.70 0.00 80.9
09/17/2018 15:00 3.05 95.0 413.71 0.00 81.2
09/17/2018 14:00 3.05 95.0 413.71 0.00 81.4
09/17/2018 13:00 3.06 97.2 413.72 0.00 79.9
09/17/2018 12:00 3.06 97.2 413.73 0.00 74.6
09/17/2018 11:00 3.06 97.2 413.72 0.00 68.9
09/17/2018 10:00 3.06 97.2 413.72 0.00 63.9
09/17/2018 09:00 3.06 97.2 413.74 0.00 61.8
09/17/2018 08:00 3.07 99.3 413.73 0.00 60.2
09/17/2018 07:00 3.07 99.3 413.74 0.00 62.2
09/17/2018 06:00 3.06 97.2 413.74 0.00 63.0
09/17/2018 05:00 3.07 99.3 413.75 0.00 63.4
09/17/2018 04:00 3.07 99.3 413.76 0.00 63.7
09/17/2018 03:00 3.08 101.5 413.76 0.00 64.7
09/17/2018 02:00 3.07 99.3 413.76 0.00 65.5
09/17/2018 01:00 3.07 99.3 413.76 0.00 65.6
09/17/2018 00:00 3.07 99.3 413.76 0.00 66.3
09/16/2018 23:00 3.08 101.5 413.77 0.00 67.8
09/16/2018 22:00 3.08 101.5 413.77 0.00 69.0
09/16/2018 21:00 3.07 99.3 413.77 0.00 71.6
09/16/2018 20:00 3.07 99.3 413.77 0.00 74.9
09/16/2018 19:00 3.07 99.3 413.79 0.00 78.7
09/16/2018 18:00 3.08 101.5 413.78 0.00 82.5
09/16/2018 17:00 3.08 101.5 413.79 0.00 83.6
09/16/2018 16:00 3.09 103.7 413.81 0.00 84.1
09/16/2018 15:00 3.09 103.7 413.79 0.00 82.5
09/16/2018 14:00 3.09 103.7 413.80 0.00 82.9
09/16/2018 13:00 3.09 103.7 413.79 0.00 80.2
09/16/2018 12:00 3.09 103.7 413.81 0.00 76.9
09/16/2018 11:00 3.09 103.7 413.82 0.00 71.8
09/16/2018 10:00 3.09 103.7 413.81 0.00 67.2
09/16/2018 09:00 3.09 103.7 413.82 0.00 63.6
09/16/2018 08:00 3.10 106.0 413.83 0.00 61.5
09/16/2018 07:00 3.09 103.7 413.82 0.00 61.0
09/16/2018 06:00 3.10 106.0 413.83 0.00 60.7
09/16/2018 05:00 3.10 106.0 413.84 0.00 60.9
09/16/2018 04:00 3.10 106.0 413.83 0.00 61.7
09/16/2018 03:00 3.11 108.2 413.85 0.00 61.9
09/16/2018 02:00 3.10 106.0 413.84 0.00 61.9
09/16/2018 01:00 3.11 108.2 413.84 0.00 62.9
09/16/2018 00:00 3.10 106.0 413.85 0.00 63.6
09/15/2018 23:00 3.10 106.0 413.85 0.00 64.2
09/15/2018 22:00 3.11 108.2 413.86 0.00 65.5
09/15/2018 21:00 3.11 108.2 413.87 0.00 66.9
09/15/2018 20:00 3.11 108.2 413.86 0.00 69.4
09/15/2018 19:00 3.11 108.2 413.86 0.00 72.8
09/15/2018 18:00 3.11 108.2 413.86 0.00 75.7
09/15/2018 17:00 3.11 108.2 413.86 0.00 76.5
09/15/2018 16:00 3.11 108.2 413.86 0.00 75.8
09/15/2018 15:00 3.11 108.2 413.86 0.00 75.1
09/15/2018 14:00 3.11 108.2 413.89 0.00 72.1
09/15/2018 13:00 3.11 108.2 413.87 0.00 68.0
09/15/2018 12:00 3.12 110.5 413.89 0.00 65.8
09/15/2018 11:00 3.13 112.8 413.90 0.00 64.3
09/15/2018 10:00 3.12 110.5 413.88 0.00 62.4
09/15/2018 09:00 3.12 110.5 413.88 0.00 60.4
09/15/2018 08:00 3.13 112.8 413.90 0.00 58.1
09/15/2018 07:00 3.13 112.8 413.91 0.00 56.9
09/15/2018 06:00 3.13 112.8 413.92 0.00 56.8
09/15/2018 05:00 3.13 112.8 413.92 0.00 56.6
09/15/2018 04:00 3.13 112.8 413.92 0.00 55.1
09/15/2018 03:00 3.13 112.8 413.93 0.00 56.2
09/15/2018 02:00 3.14 115.2 413.92 0.00 56.8
09/15/2018 01:00 3.14 115.2 413.92 0.00 58.4
09/15/2018 00:00 3.14 115.2 413.91 0.00 59.0
09/14/2018 23:00 3.14 115.2 413.92 0.00 59.3
09/14/2018 22:00 3.14 115.2 413.92 0.00 60.9
09/14/2018 21:00 3.14 115.2 413.94 0.00 63.1
09/14/2018 20:00 3.14 115.2 413.93 0.00 65.8
09/14/2018 19:00 3.15 117.6 413.94 0.00 69.7
09/14/2018 18:00 3.14 115.2 413.95 0.00 75.6
09/14/2018 17:00 3.15 117.6 413.93 0.00 76.1
09/14/2018 16:00 3.15 117.6 413.95 0.00 76.7
09/14/2018 15:00 3.15 117.6 413.93 0.00 76.0
09/14/2018 14:00 3.15 117.6 413.95 0.00 74.3
09/14/2018 13:00 3.15 117.6 413.94 0.00 71.5
09/14/2018 12:00 3.15 117.6 413.94 0.00 68.6
09/14/2018 11:00 3.15 117.6 413.95 0.00 65.9
09/14/2018 10:00 3.16 120.0 413.95 0.00 61.7
09/14/2018 09:00 3.16 120.0 413.96 0.00 58.8
09/14/2018 08:00 3.17 122.4 413.95 0.00 58.0
09/14/2018 07:00 3.16 120.0 413.97 0.00 58.0
09/14/2018 06:00 3.16 120.0 413.97 0.00 59.1
09/14/2018 05:00 3.17 122.4 413.96 0.00 58.5
09/14/2018 04:00 3.16 120.0 413.95 0.00 59.4
09/14/2018 03:00 3.17 122.4 413.98 0.00 59.9
09/14/2018 02:00 3.16 120.0 413.97 0.00 61.3
09/14/2018 01:00 3.17 122.4 413.97 0.00 61.9
09/14/2018 00:00 3.16 120.0 413.96 0.00 63.0
09/13/2018 23:00 3.17 122.4 413.97 0.00 63.4
09/13/2018 22:00 3.16 120.0 413.97 0.00 64.8
09/13/2018 21:00 3.17 122.4 413.97 0.00 66.5
09/13/2018 20:00 3.17 122.4 413.99 0.00 68.9
09/13/2018 19:00 3.17 122.4 413.98 0.00 71.9
09/13/2018 18:00 3.16 120.0 413.96 0.00 72.8
09/13/2018 17:00 3.16 120.0 413.96 0.00 74.2
09/13/2018 16:00 3.17 122.4 413.98 0.00 72.9
09/13/2018 15:00 3.11 108.2 413.99 0.00 70.7
09/13/2018 14:00 3.10 106.0 413.98 0.00 69.8
09/13/2018 13:00 3.10 106.0 413.98 0.00 69.5
09/13/2018 12:00 3.10 106.0 413.96 0.00 69.2
09/13/2018 11:00 3.10 106.0 413.98 0.00 67.3
09/13/2018 10:00 3.10 106.0 413.96 0.01 65.5
09/13/2018 09:00 3.10 106.0 413.99 0.01 64.4
09/13/2018 08:00 3.10 106.0 413.97 0.03 63.5
09/13/2018 07:00 3.10 106.0 413.98 0.02 63.4
09/13/2018 06:00 3.09 103.7 413.96 0.00 63.6
09/13/2018 05:00 3.08 101.5 413.96 0.00 63.8
09/13/2018 04:00 3.08 101.5 413.95 0.00 63.7
09/13/2018 03:00 3.08 101.5 413.94 0.00 64.1
09/13/2018 02:00 3.08 101.5 413.97 0.00 63.8
09/13/2018 01:00 3.07 99.3 413.94 0.00 64.4
09/13/2018 00:00 3.07 99.3 413.93 0.00 64.3
09/12/2018 23:00 3.06 97.2 413.92 0.00 65.0
09/12/2018 22:00 3.06 97.2 413.94 0.00 64.3
09/12/2018 21:00 3.06 97.2 413.92 0.00 64.6
09/12/2018 20:00 2.98 81.1 413.93 0.00 65.5
09/12/2018 19:00 2.93 72.1 413.93 0.00 67.2
09/12/2018 18:00 2.92 70.3 413.93 0.00 67.7
09/12/2018 17:00 2.91 68.7 413.92 0.00 68.2
09/12/2018 16:00 2.91 68.7 413.91 0.00 67.8
09/12/2018 15:00 2.91 68.7 413.90 0.01 66.3
09/12/2018 14:00 2.90 67.0 413.90 0.00 66.1
09/12/2018 13:00 2.90 67.0 413.89 0.00 65.7
09/12/2018 12:00 2.89 65.4 413.88 0.00 65.5
09/12/2018 11:00 2.89 65.4 413.87 0.00 66.0
09/12/2018 10:00 2.88 63.8 413.86 0.00 66.7
09/12/2018 09:00 2.87 62.2 413.88 0.00 66.3
09/12/2018 08:00 2.86 60.7 413.86 0.00 66.0
09/12/2018 07:00 2.85 59.2 413.85 0.00 66.1
09/12/2018 06:00 2.85 59.2 413.86 0.00 65.9
09/12/2018 05:00 2.84 57.7 413.82 0.00 65.8
09/12/2018 04:00 2.83 56.2 413.82 0.00 65.9
09/12/2018 03:00 2.82 54.8 413.81 0.00 65.8
09/12/2018 02:00 2.82 54.8 413.81 0.00 66.2
09/12/2018 01:00 2.81 53.4 413.79 0.00 66.1
09/12/2018 00:00 2.80 52.0 413.78 0.00 66.4
09/11/2018 23:00 2.79 50.6 413.80 0.00 66.4
09/11/2018 22:00 2.78 49.3 413.77 0.00 67.0
09/11/2018 21:00 2.77 48.0 413.76 0.00 68.6
09/11/2018 20:00 2.76 46.7 413.76 0.00 69.8
09/11/2018 19:00 2.75 45.5 413.75 0.00 72.1
09/11/2018 18:00 2.74 44.2 413.74 0.00 72.7
09/11/2018 17:00 2.74 44.2 413.72 0.00 73.2
09/11/2018 16:00 2.73 43.0 413.70 0.00 71.5
09/11/2018 15:00 2.73 43.0 413.71 0.00 67.2
09/11/2018 14:00 2.73 43.0 413.69 0.00 64.7
09/11/2018 13:00 2.72 41.8 413.68 0.00 62.5
09/11/2018 12:00 2.71 40.6 413.69 0.00 61.9
09/11/2018 11:00 2.71 40.6 413.67 0.00 60.4
09/11/2018 10:00 2.69 38.4 413.66 0.00 59.7
09/11/2018 09:00 2.68 37.3 413.64 0.00 58.8
09/11/2018 08:00 2.68 37.3 413.63 0.01 58.1
09/11/2018 07:00 2.67 36.2 413.63 0.03 58.7
09/11/2018 06:00 2.66 35.1 413.63 0.14 58.4
09/11/2018 05:00 2.62 31.1 413.57 0.15 58.5
09/11/2018 04:00 2.59 28.3 413.55 0.19 58.4
09/11/2018 03:00 2.55 24.9 413.50 0.00 58.1
09/11/2018 02:00 2.49 20.3 413.46 0.15 57.8
09/11/2018 01:00 2.46 18.2 413.43 0.18 58.3
09/11/2018 00:00 2.43 16.3 413.39 0.00 58.2
09/10/2018 23:00 2.40 14.5 413.37 0.07 58.0
09/10/2018 22:00 2.40 14.5 413.37 0.07 57.7
09/10/2018 21:00 2.39 13.9 413.36 0.06 57.5
09/10/2018 20:00 2.39 13.9 413.37 0.02 58.2
09/10/2018 19:00 2.39 13.9 413.34 0.01 58.8
09/10/2018 18:00 2.39 13.9 413.36 0.00 59.1
09/10/2018 17:00 2.39 13.9 413.35 0.00 60.7
09/10/2018 16:00 2.38 13.4 413.37 0.00 61.2
09/10/2018 15:00 2.38 13.4 413.35 0.00 62.1
09/10/2018 14:00 2.39 13.9 413.34 0.00 60.6
09/10/2018 13:00 2.39 13.9 413.35 0.00 59.5
09/10/2018 12:00 2.39 13.9 413.37 0.00 56.5
09/10/2018 11:00 2.39 13.9 413.36 0.00 55.3
09/10/2018 10:00 2.39 13.9 413.36 0.00 52.9
09/10/2018 09:00 2.39 13.9 413.38 0.00 51.8
09/10/2018 08:00 2.38 13.4 413.37 0.00 50.8
09/10/2018 07:00 2.38 13.4 413.35 0.00 50.4
09/10/2018 06:00 2.38 13.4 413.36 0.00 49.7
09/10/2018 05:00 2.38 13.4 413.36 0.00 49.9
09/10/2018 04:00 2.37 12.9 413.36 0.00 48.7
09/10/2018 03:00 2.37 12.9 413.36 0.00 48.4
09/10/2018 02:00 2.37 12.9 413.37 0.00 47.9
09/10/2018 01:00 2.37 12.9 413.37 0.00 48.3
09/10/2018 00:00 2.37 12.9 413.38 0.00 49.6
09/09/2018 23:00 2.37 12.9 413.38 0.00 50.4
09/09/2018 22:00 2.36 12.4 413.36 0.00 51.7
09/09/2018 21:00 2.36 12.4 413.37 0.00 53.1
09/09/2018 20:00 2.36 12.4 413.35 0.00 55.0
09/09/2018 19:00 2.36 12.4 413.34 0.00 58.5
09/09/2018 18:00 2.36 12.4 413.35 0.00 59.4
09/09/2018 17:00 2.36 12.4 413.37 0.00 60.3
09/09/2018 16:00 2.36 12.4 413.37 0.00 59.2
09/09/2018 15:00 2.37 12.9 413.36 0.00 58.5
09/09/2018 14:00 2.36 12.4 413.37 0.00 58.6
09/09/2018 13:00 2.37 12.9 413.40 0.00 57.9
09/09/2018 12:00 2.37 12.9 413.38 0.00 56.4
09/09/2018 11:00 2.37 12.9 413.38 0.00 54.8
09/09/2018 10:00 2.37 12.9 413.37 0.00 52.5
09/09/2018 09:00 2.36 12.4 413.37 0.00 49.5
09/09/2018 08:00 2.36 12.4 413.38 0.00 48.9
09/09/2018 07:00 2.36 12.4 413.38 0.00 49.4
09/09/2018 06:00 2.36 12.4 413.37 0.00 50.1
09/09/2018 05:00 2.35 11.9 413.38 0.00 50.8
09/09/2018 04:00 2.35 11.9 413.37 0.00 51.8
09/09/2018 03:00 2.35 11.9 413.39 0.00 52.5
09/09/2018 02:00 2.35 11.9 413.36 0.00 53.0
09/09/2018 01:00 2.35 11.9 413.38 0.00 53.3
09/09/2018 00:00 2.35 11.9 413.38 0.00 53.5
09/08/2018 23:00 2.35 11.9 413.38 0.00 53.6
09/08/2018 22:00 2.35 11.8 413.38 0.00 53.8
09/08/2018 21:00 2.35 11.8 413.38 0.00 54.0
09/08/2018 20:00 2.35 11.8 413.38 0.00 54.1
09/08/2018 19:00 2.35 11.8 413.38 0.00 54.3
09/08/2018 18:00 2.35 11.8 413.38 0.00 54.5
09/08/2018 17:00 2.35 11.8 413.38 0.00 54.7
09/08/2018 16:00 2.35 11.8 413.38 0.00 54.8
09/08/2018 15:00 2.35 11.8 413.38 0.00 55.0
09/08/2018 14:00 2.35 11.7 413.38 0.00 55.2
09/08/2018 13:00 2.35 11.7 413.38 0.00 55.3
09/08/2018 12:00 2.35 11.7 413.38 0.00 55.5
09/08/2018 11:00 2.35 11.7 413.38 0.00 55.7
09/08/2018 10:00 2.35 11.7 413.38 0.00 55.8
09/08/2018 09:00 2.35 11.7 413.38 0.00 56.0
09/08/2018 08:00 2.35 11.7 413.38 0.00 56.2
09/08/2018 07:00 2.35 11.7 413.38 0.00 56.4
09/08/2018 06:00 2.35 11.6 413.38 0.00 56.5
09/08/2018 05:00 2.35 11.6 413.38 0.00 56.7
09/08/2018 04:00 2.34 11.6 413.38 0.00 56.9
09/08/2018 03:00 2.34 11.6 413.38 0.00 57.0
09/08/2018 02:00 2.34 11.6 413.38 0.00 57.2
09/08/2018 01:00 2.34 11.6 413.38 0.00 57.4
09/08/2018 00:00 2.34 11.6 413.38 0.00 57.6
09/07/2018 23:00 2.34 11.6 413.38 0.00 57.7
09/07/2018 22:00 2.34 11.5 413.38 0.00 57.9
09/07/2018 21:00 2.34 11.5 413.38 0.00 58.1
09/07/2018 20:00 2.34 11.5 413.38 0.00 58.2
09/07/2018 19:00 2.34 11.5 413.38 0.00 58.4
09/07/2018 18:00 2.34 11.5 413.38 0.00 58.6
09/07/2018 17:00 2.34 11.5 413.38 0.00 58.7
09/07/2018 16:00 2.34 11.5 413.38 0.00 58.9
09/07/2018 15:00 2.34 11.5 413.38 0.00 59.1
09/07/2018 14:00 2.34 11.5 413.38 0.00 59.3
09/07/2018 13:00 2.34 11.4 413.38 0.00 59.4
09/07/2018 12:00 2.34 11.4 413.38 0.00 59.6
09/07/2018 11:00 2.34 11.4 413.38 0.00 59.8
09/07/2018 10:00 2.34 11.4 413.38 0.00 59.9
09/07/2018 09:00 2.34 11.4 413.38 0.00 60.1
09/07/2018 08:00 2.34 11.4 413.39 0.00 58.5
09/07/2018 07:00 2.34 11.4 413.37 0.00 59.7
09/07/2018 06:00 2.34 11.4 413.37 0.00 59.6
09/07/2018 05:00 2.34 11.4 413.37 0.00 60.8
09/07/2018 04:00 2.34 11.4 413.38 0.00 63.2
09/07/2018 03:00 2.35 11.9 413.39 0.00 65.3
09/07/2018 02:00 2.35 11.9 413.37 0.00 65.3
09/07/2018 01:00 2.35 11.9 413.39 0.00 65.2
09/07/2018 00:00 2.35 11.9 413.38 0.00 68.1
09/06/2018 23:00 2.35 11.9 413.38 0.00 68.9
09/06/2018 22:00 2.35 11.9 413.39 0.00 69.7
09/06/2018 21:00 2.35 11.9 413.37 0.00 70.0
09/06/2018 20:00 2.35 11.9 413.37 0.00 70.7
09/06/2018 19:00 2.35 11.9 413.36 0.00 72.1
09/06/2018 18:00 2.36 12.4 413.37 0.00 72.9
09/06/2018 17:00 2.35 11.9 413.37 0.01 75.3
09/06/2018 16:00 2.36 12.4 413.38 0.03 74.2
09/06/2018 15:00 2.36 12.4 413.36 0.40 73.0
09/06/2018 14:00 2.34 11.4 413.33 0.00 88.1
09/06/2018 13:00 2.34 11.4 413.34 0.00 86.1
09/06/2018 12:00 2.34 11.4 413.34 0.00 84.8
09/06/2018 11:00 2.35 11.9 413.34 0.00 82.5
09/06/2018 10:00 2.35 11.9 413.32 0.00 78.7
09/06/2018 09:00 2.35 11.9 413.33 0.00 75.9
09/06/2018 08:00 2.35 11.9 413.35 0.00 71.2
09/06/2018 07:00 2.35 11.9 413.34 0.00 70.6
09/06/2018 06:00 2.35 11.9 413.34 0.00 71.3
09/06/2018 05:00 2.35 11.9 413.35 0.00 70.5
09/06/2018 04:00 2.35 11.9 413.34 0.00 70.4
09/06/2018 03:00 2.35 11.9 413.32 0.00 70.0
09/06/2018 02:00 2.35 11.9 413.34 0.00 70.5
09/06/2018 01:00 2.35 11.9 413.33 0.00 70.4
09/06/2018 00:00 2.35 11.9 413.34 0.00 70.9
09/05/2018 23:00 2.35 11.9 413.32 0.00 72.0
09/05/2018 22:00 2.35 11.9 413.33 0.00 73.7
09/05/2018 21:00 2.35 11.9 413.34 0.00 75.6
09/05/2018 20:00 2.35 11.9 413.32 0.00 79.1
09/05/2018 19:00 2.35 11.9 413.32 0.00 82.7
09/05/2018 18:00 2.35 11.9 413.32 0.00 85.7
09/05/2018 17:00 2.35 11.9 413.33 0.00 86.0
09/05/2018 16:00 2.35 11.9 413.34 0.00 85.3
09/05/2018 15:00 2.35 11.9 413.32 0.00 84.2
09/05/2018 14:00 2.35 11.9 413.33 0.00 82.2
09/05/2018 13:00 2.35 11.9 413.33 0.00 79.0
09/05/2018 12:00 2.35 11.9 413.33 0.00 75.9
09/05/2018 11:00 2.35 11.9 413.33 0.00 72.8
09/05/2018 10:00 2.35 11.9 413.33 0.00 69.6
09/05/2018 09:00 2.35 11.9 413.33 0.00 66.5
09/05/2018 08:00 2.35 11.9 413.33 0.00 66.2
09/05/2018 07:00 2.35 11.9 413.36 0.00 66.4
09/05/2018 06:00 2.36 12.1 413.36 0.00 66.4
09/05/2018 05:00 2.36 12.4 413.35 0.00 66.4
09/05/2018 04:00 2.36 12.4 413.35 0.00 66.1
09/05/2018 03:00 2.36 12.4 413.35 0.00 65.9
09/05/2018 02:00 2.36 12.4 413.33 0.00 66.8
09/05/2018 01:00 2.36 12.4 413.34 0.00 67.1
09/05/2018 00:00 2.36 12.4 413.34 0.00 68.3
09/04/2018 23:00 2.36 12.4 413.33 0.00 69.3
09/04/2018 22:00 -- -- -- -- --
09/04/2018 21:00 -- -- -- -- --
09/04/2018 20:00 -- -- -- -- --
09/04/2018 19:00 -- -- -- -- --
09/04/2018 18:00 -- -- -- -- --
09/04/2018 17:00 -- -- -- -- --
09/04/2018 16:00 -- -- -- -- --